DAL069 KSEA-RCTP
Flight info
| Callsign | DAL069 |
|---|---|
| Flight time | N/A |
| Altitude | 34000 |
| Route | BANGR9 ARRIE DCT TOU DCT DOLFF DCT PRETY DCT 51N140W 53N150W 54N160W DCT RIZON/N0493F360 DCT ADK DCT 50N176E 47N170E 39N160E/N0492F380 33N150E DCT NOGAK DCT BIXAK/N0490F400 DCT RYUKI Z32 YUSKE Y322 SEDKU R595 GRACE GRACE1A |
| Aircraft | A359/H-SDE2E3GHIJ3J4J5LM1ORWXY/LB1D1 |
Departure
| Time | 2026-05-04 22:50 |
|---|---|
| Airport | Seattle–Tacoma International Airport (KSEA) |
Arrival
| Time | N/A |
|---|---|
| Airport | Taiwan Taoyuan International Airport (RCTP) |
| Time | Latitude | Longitude | Altitude | Speed | Heading |
|---|---|---|---|---|---|
| 2026-05-04 22:19 | 47.44141 | -122.30143 | 398 ft | 0 kts | 39° |
| 2026-05-04 22:35 | 47.44129 | -122.30158 | 394 ft | 4 kts | 45° |
| 2026-05-04 22:35 | 47.44111 | -122.30188 | 393 ft | 4 kts | 49° |
| 2026-05-04 22:35 | 47.44092 | -122.30211 | 393 ft | 3 kts | 9° |
| 2026-05-04 22:36 | 47.44067 | -122.30213 | 390 ft | 4 kts | 344° |
| 2026-05-04 22:36 | 47.44048 | -122.30195 | 393 ft | 4 kts | 287° |
| 2026-05-04 22:36 | 47.44046 | -122.30163 | 389 ft | 4 kts | 264° |
| 2026-05-04 22:36 | 47.44048 | -122.30124 | 390 ft | 3 kts | 280° |
| 2026-05-04 22:37 | 47.44047 | -122.30119 | 392 ft | 1 kts | 283° |
| 2026-05-04 22:40 | 47.44052 | -122.30174 | 392 ft | 9 kts | 268° |
| 2026-05-04 22:40 | 47.44023 | -122.30261 | 393 ft | 10 kts | 235° |
| 2026-05-04 22:41 | 47.43996 | -122.30361 | 392 ft | 11 kts | 261° |
| 2026-05-04 22:41 | 47.43991 | -122.30478 | 391 ft | 12 kts | 271° |
| 2026-05-04 22:41 | 47.43998 | -122.30599 | 390 ft | 11 kts | 287° |
| 2026-05-04 22:41 | 47.44034 | -122.30633 | 391 ft | 5 kts | 345° |
| 2026-05-04 22:42 | 47.44062 | -122.30635 | 391 ft | 3 kts | 359° |
| 2026-05-04 22:42 | 47.44082 | -122.30635 | 392 ft | 2 kts | 360° |
| 2026-05-04 22:42 | 47.44087 | -122.30635 | 392 ft | 0 kts | 360° |
| 2026-05-04 22:43 | 47.44104 | -122.30635 | 392 ft | 9 kts | 360° |
| 2026-05-04 22:43 | 47.44164 | -122.30636 | 393 ft | 8 kts | 360° |
| 2026-05-04 22:43 | 47.44213 | -122.30635 | 392 ft | 6 kts | 0° |
| 2026-05-04 22:44 | 47.44267 | -122.30635 | 393 ft | 11 kts | 0° |
| 2026-05-04 22:44 | 47.44359 | -122.30633 | 399 ft | 16 kts | 1° |
| 2026-05-04 22:44 | 47.44488 | -122.30630 | 399 ft | 21 kts | 1° |
| 2026-05-04 22:44 | 47.44650 | -122.30629 | 406 ft | 25 kts | 360° |
| 2026-05-04 22:45 | 47.44829 | -122.30629 | 410 ft | 24 kts | 0° |
| 2026-05-04 22:45 | 47.45123 | -122.30627 | 416 ft | 18 kts | 0° |
| 2026-05-04 22:45 | 47.45238 | -122.30626 | 417 ft | 15 kts | 0° |
| 2026-05-04 22:46 | 47.45326 | -122.30625 | 420 ft | 11 kts | 0° |
| 2026-05-04 22:46 | 47.45412 | -122.30623 | 425 ft | 17 kts | 0° |
| 2026-05-04 22:46 | 47.45566 | -122.30622 | 432 ft | 26 kts | 0° |
| 2026-05-04 22:46 | 47.45681 | -122.30621 | 429 ft | 24 kts | 0° |
| 2026-05-04 22:47 | 47.45891 | -122.30619 | 428 ft | 22 kts | 0° |
| 2026-05-04 22:47 | 47.46035 | -122.30618 | 447 ft | 20 kts | 0° |
| 2026-05-04 22:47 | 47.46129 | -122.30617 | 447 ft | 20 kts | 0° |
| 2026-05-04 22:47 | 47.46264 | -122.30616 | 447 ft | 19 kts | 0° |
| 2026-05-04 22:48 | 47.46366 | -122.30657 | 448 ft | 12 kts | 302° |
| 2026-05-04 22:48 | 47.46354 | -122.30757 | 448 ft | 9 kts | 225° |
| 2026-05-04 22:48 | 47.46302 | -122.30778 | 447 ft | 8 kts | 180° |
| 2026-05-04 22:48 | 47.46294 | -122.30778 | 447 ft | 0 kts | 180° |
| 2026-05-04 22:49 | 47.46293 | -122.30778 | 447 ft | 3 kts | 180° |
| 2026-05-04 22:49 | 47.46131 | -122.30779 | 433 ft | 52 kts | 180° |
| 2026-05-04 22:49 | 47.45537 | -122.30786 | 423 ft | 117 kts | 180° |
| 2026-05-04 22:50 | 47.44518 | -122.30794 | 403 ft | 173 kts | 180° |
| 2026-05-04 22:50 | 47.43225 | -122.30804 | 898 ft | 183 kts | 182° |
| 2026-05-04 22:50 | 47.41981 | -122.30734 | 1694 ft | 178 kts | 182° |
| 2026-05-04 22:50 | 47.40746 | -122.30695 | 2010 ft | 180 kts | 175° |
| 2026-05-04 22:51 | 47.39488 | -122.30566 | 2299 ft | 183 kts | 183° |
| 2026-05-04 22:51 | 47.38199 | -122.30682 | 2475 ft | 189 kts | 188° |
| 2026-05-04 22:51 | 47.36865 | -122.30834 | 2636 ft | 200 kts | 186° |
| 2026-05-04 22:51 | 47.35431 | -122.30930 | 2881 ft | 211 kts | 184° |
| 2026-05-04 22:52 | 47.33926 | -122.31119 | 3045 ft | 224 kts | 195° |
| 2026-05-04 22:52 | 47.32511 | -122.32162 | 3190 ft | 236 kts | 226° |
| 2026-05-04 22:52 | 47.31662 | -122.34263 | 3399 ft | 247 kts | 255° |
| 2026-05-04 22:52 | 47.31336 | -122.36794 | 3758 ft | 255 kts | 263° |
| 2026-05-04 22:53 | 47.31083 | -122.39423 | 4132 ft | 262 kts | 263° |
| 2026-05-04 22:53 | 47.30854 | -122.42105 | 4577 ft | 267 kts | 268° |
| 2026-05-04 22:53 | 47.31095 | -122.44813 | 4988 ft | 268 kts | 292° |
| 2026-05-04 22:53 | 47.31878 | -122.47269 | 5492 ft | 269 kts | 301° |
| 2026-05-04 22:54 | 47.32773 | -122.49675 | 6041 ft | 268 kts | 301° |
| 2026-05-04 22:54 | 47.33825 | -122.51968 | 6491 ft | 272 kts | 315° |
| 2026-05-04 22:54 | 47.35196 | -122.53885 | 6986 ft | 273 kts | 320° |
| 2026-05-04 22:54 | 47.36642 | -122.55716 | 7542 ft | 274 kts | 321° |
| 2026-05-04 22:55 | 47.38095 | -122.57548 | 8105 ft | 276 kts | 321° |
| 2026-05-04 22:55 | 47.39558 | -122.59404 | 8596 ft | 280 kts | 320° |
| 2026-05-04 22:55 | 47.41031 | -122.61287 | 9169 ft | 280 kts | 321° |
| 2026-05-04 22:55 | 47.42502 | -122.63175 | 9769 ft | 281 kts | 321° |
| 2026-05-04 22:56 | 47.43990 | -122.65084 | 10181 ft | 287 kts | 320° |
| 2026-05-04 22:56 | 47.45525 | -122.67062 | 10467 ft | 299 kts | 321° |
| 2026-05-04 22:56 | 47.47120 | -122.69118 | 10716 ft | 311 kts | 321° |
| 2026-05-04 22:56 | 47.48783 | -122.71259 | 10968 ft | 323 kts | 321° |
| 2026-05-04 22:57 | 47.50505 | -122.73480 | 11218 ft | 334 kts | 321° |
| 2026-05-04 22:57 | 47.52285 | -122.75778 | 11468 ft | 345 kts | 320° |
| 2026-05-04 22:57 | 47.54120 | -122.78152 | 11687 ft | 356 kts | 320° |
| 2026-05-04 22:57 | 47.56010 | -122.80601 | 11940 ft | 366 kts | 320° |
| 2026-05-04 22:58 | 47.57952 | -122.83114 | 12191 ft | 375 kts | 320° |
| 2026-05-04 22:58 | 47.59917 | -122.85664 | 12645 ft | 377 kts | 320° |
| 2026-05-04 22:58 | 47.61875 | -122.88205 | 13037 ft | 381 kts | 320° |
| 2026-05-04 22:58 | 47.63839 | -122.90867 | 13420 ft | 385 kts | 315° |
| 2026-05-04 22:59 | 47.65506 | -122.94054 | 13865 ft | 388 kts | 305° |
| 2026-05-04 22:59 | 47.66966 | -122.97448 | 14230 ft | 391 kts | 303° |
| 2026-05-04 22:59 | 47.68389 | -123.00838 | 14608 ft | 393 kts | 303° |
| 2026-05-04 22:59 | 47.69842 | -123.04288 | 14914 ft | 394 kts | 303° |
| 2026-05-04 23:00 | 47.71303 | -123.07751 | 15172 ft | 397 kts | 304° |
| 2026-05-04 23:00 | 47.72768 | -123.11237 | 15611 ft | 399 kts | 304° |
| 2026-05-04 23:00 | 47.74237 | -123.14725 | 16068 ft | 398 kts | 304° |
| 2026-05-04 23:00 | 47.75712 | -123.18231 | 16400 ft | 402 kts | 304° |
| 2026-05-04 23:01 | 47.77195 | -123.21760 | 16704 ft | 402 kts | 304° |
| 2026-05-04 23:01 | 47.78677 | -123.25296 | 17099 ft | 405 kts | 304° |
| 2026-05-04 23:01 | 47.80175 | -123.28862 | 17489 ft | 408 kts | 304° |
| 2026-05-04 23:01 | 47.81677 | -123.32444 | 18014 ft | 409 kts | 304° |
| 2026-05-04 23:02 | 47.83183 | -123.36051 | 18445 ft | 412 kts | 304° |
| 2026-05-04 23:02 | 47.84701 | -123.39680 | 18798 ft | 414 kts | 304° |
| 2026-05-04 23:02 | 47.86223 | -123.43328 | 19145 ft | 416 kts | 304° |
| 2026-05-04 23:02 | 47.87754 | -123.47001 | 19504 ft | 418 kts | 304° |
| 2026-05-04 23:03 | 47.89262 | -123.50689 | 19862 ft | 421 kts | 303° |
| 2026-05-04 23:03 | 47.90706 | -123.54472 | 20197 ft | 423 kts | 302° |
| 2026-05-04 23:03 | 47.92117 | -123.58329 | 20566 ft | 425 kts | 301° |
| 2026-05-04 23:03 | 47.93524 | -123.62214 | 20905 ft | 427 kts | 302° |
| 2026-05-04 23:04 | 47.94942 | -123.66123 | 21257 ft | 430 kts | 302° |
| 2026-05-04 23:04 | 47.96383 | -123.70065 | 21524 ft | 434 kts | 302° |
| 2026-05-04 23:04 | 47.97826 | -123.74030 | 21859 ft | 436 kts | 302° |
| 2026-05-04 23:04 | 47.99290 | -123.78019 | 22152 ft | 440 kts | 302° |
| 2026-05-04 23:05 | 48.00762 | -123.82020 | 22642 ft | 440 kts | 302° |
| 2026-05-04 23:05 | 48.02237 | -123.86034 | 22961 ft | 442 kts | 302° |
| 2026-05-04 23:05 | 48.03720 | -123.90067 | 23395 ft | 443 kts | 302° |
| 2026-05-04 23:05 | 48.05208 | -123.94119 | 23746 ft | 445 kts | 302° |
| 2026-05-04 23:06 | 48.06697 | -123.98185 | 24062 ft | 447 kts | 302° |
| 2026-05-04 23:06 | 48.08192 | -124.02281 | 24383 ft | 449 kts | 302° |
| 2026-05-04 23:06 | 48.09672 | -124.06344 | 24709 ft | 451 kts | 302° |
| 2026-05-04 23:06 | 48.11180 | -124.10485 | 25013 ft | 454 kts | 302° |
| 2026-05-04 23:07 | 48.12692 | -124.14640 | 25363 ft | 455 kts | 302° |
| 2026-05-04 23:07 | 48.14207 | -124.18811 | 25687 ft | 457 kts | 302° |
| 2026-05-04 23:07 | 48.15726 | -124.23001 | 25985 ft | 459 kts | 302° |
| 2026-05-04 23:07 | 48.17253 | -124.27218 | 26299 ft | 461 kts | 302° |
| 2026-05-04 23:08 | 48.18782 | -124.31449 | 26570 ft | 464 kts | 302° |
| 2026-05-04 23:08 | 48.20319 | -124.35713 | 26862 ft | 465 kts | 302° |
| 2026-05-04 23:08 | 48.21860 | -124.39990 | 27186 ft | 467 kts | 302° |
| 2026-05-04 23:08 | 48.23407 | -124.44284 | 27477 ft | 469 kts | 302° |
| 2026-05-04 23:09 | 48.24959 | -124.48596 | 27749 ft | 471 kts | 302° |
| 2026-05-04 23:09 | 48.26513 | -124.52929 | 28025 ft | 473 kts | 302° |
| 2026-05-04 23:09 | 48.28032 | -124.57312 | 28293 ft | 476 kts | 298° |
| 2026-05-04 23:09 | 48.29235 | -124.61970 | 28588 ft | 481 kts | 290° |
| 2026-05-04 23:10 | 48.29964 | -124.66912 | 28767 ft | 489 kts | 281° |
| 2026-05-04 23:10 | 48.30274 | -124.72032 | 28970 ft | 494 kts | 277° |
| 2026-05-04 23:10 | 48.30450 | -124.77193 | 29204 ft | 496 kts | 276° |
| 2026-05-04 23:10 | 48.30562 | -124.82369 | 29437 ft | 498 kts | 275° |
| 2026-05-04 23:11 | 48.30651 | -124.87581 | 29664 ft | 499 kts | 275° |
| 2026-05-04 23:11 | 48.30736 | -124.92781 | 29998 ft | 498 kts | 275° |
| 2026-05-04 23:11 | 48.30826 | -124.97974 | 30288 ft | 497 kts | 275° |
| 2026-05-04 23:11 | 48.30923 | -125.03171 | 30541 ft | 497 kts | 275° |
| 2026-05-04 23:12 | 48.31024 | -125.08351 | 30795 ft | 496 kts | 275° |
| 2026-05-04 23:12 | 48.31128 | -125.13532 | 31009 ft | 496 kts | 276° |
| 2026-05-04 23:12 | 48.31232 | -125.18704 | 31256 ft | 495 kts | 276° |
| 2026-05-04 23:12 | 48.31334 | -125.23877 | 31443 ft | 496 kts | 275° |
| 2026-05-04 23:13 | 48.31434 | -125.29059 | 31613 ft | 496 kts | 275° |
| 2026-05-04 23:13 | 48.31531 | -125.34235 | 31857 ft | 495 kts | 275° |
| 2026-05-04 23:13 | 48.31623 | -125.39326 | 32116 ft | 494 kts | 275° |
| 2026-05-04 23:13 | 48.31714 | -125.44481 | 32326 ft | 493 kts | 275° |
| 2026-05-04 23:14 | 48.31803 | -125.49626 | 32510 ft | 493 kts | 275° |
| 2026-05-04 23:14 | 48.31889 | -125.54780 | 32699 ft | 493 kts | 275° |
| 2026-05-04 23:14 | 48.31973 | -125.59936 | 32889 ft | 493 kts | 275° |
| 2026-05-04 23:14 | 48.32055 | -125.65071 | 33075 ft | 492 kts | 275° |
| 2026-05-04 23:15 | 48.32134 | -125.70218 | 33266 ft | 492 kts | 275° |
| 2026-05-04 23:15 | 48.32211 | -125.75355 | 33416 ft | 492 kts | 275° |
| 2026-05-04 23:15 | 48.32287 | -125.80496 | 33547 ft | 492 kts | 275° |
| 2026-05-04 23:15 | 48.32359 | -125.85642 | 33705 ft | 492 kts | 275° |
| 2026-05-04 23:16 | 48.32429 | -125.90783 | 33870 ft | 492 kts | 275° |
| 2026-05-04 23:16 | 48.32497 | -125.95932 | 33961 ft | 493 kts | 275° |
| 2026-05-04 23:16 | 48.32629 | -126.06295 | 33954 ft | 498 kts | 274° |
| 2026-05-04 23:17 | 48.32749 | -126.16628 | 33961 ft | 497 kts | 274° |
| 2026-05-04 23:17 | 48.32859 | -126.27000 | 33959 ft | 497 kts | 274° |
| 2026-05-04 23:18 | 48.32961 | -126.37377 | 33959 ft | 497 kts | 274° |
| 2026-05-04 23:18 | 48.33053 | -126.47746 | 33962 ft | 497 kts | 274° |
| 2026-05-04 23:19 | 48.33137 | -126.58102 | 33955 ft | 497 kts | 274° |
| 2026-05-04 23:19 | 48.33211 | -126.68486 | 33956 ft | 497 kts | 274° |
| 2026-05-04 23:20 | 48.33276 | -126.78866 | 33953 ft | 496 kts | 274° |
| 2026-05-04 23:20 | 48.33331 | -126.89235 | 33955 ft | 497 kts | 273° |
| 2026-05-04 23:21 | 48.33378 | -126.99614 | 33949 ft | 497 kts | 273° |
| 2026-05-04 23:21 | 48.33414 | -127.10015 | 33952 ft | 497 kts | 273° |
| 2026-05-04 23:22 | 48.33441 | -127.20326 | 33949 ft | 497 kts | 273° |
| 2026-05-04 23:22 | 48.33459 | -127.30700 | 33949 ft | 497 kts | 273° |
| 2026-05-04 23:23 | 48.33468 | -127.41100 | 33950 ft | 497 kts | 272° |
| 2026-05-04 23:23 | 48.33468 | -127.51486 | 33949 ft | 496 kts | 272° |
| 2026-05-04 23:24 | 48.33458 | -127.61852 | 33948 ft | 496 kts | 272° |
| 2026-05-04 23:24 | 48.33438 | -127.72223 | 33946 ft | 496 kts | 272° |
| 2026-05-04 23:25 | 48.33410 | -127.82565 | 33950 ft | 496 kts | 272° |
| 2026-05-04 23:25 | 48.33372 | -127.92954 | 33947 ft | 496 kts | 272° |
| 2026-05-04 23:26 | 48.33979 | -128.03211 | 33947 ft | 491 kts | 284° |
| 2026-05-04 23:26 | 48.35527 | -128.13118 | 33944 ft | 490 kts | 286° |
| 2026-05-04 23:27 | 48.37229 | -128.23046 | 33944 ft | 490 kts | 287° |
| 2026-05-04 23:27 | 48.38932 | -128.32961 | 33944 ft | 490 kts | 286° |
| 2026-05-04 23:28 | 48.40610 | -128.42898 | 33947 ft | 490 kts | 286° |
| 2026-05-04 23:28 | 48.42270 | -128.52850 | 33946 ft | 490 kts | 286° |
| 2026-05-04 23:29 | 48.43918 | -128.62794 | 33940 ft | 489 kts | 285° |
| 2026-05-04 23:29 | 48.45557 | -128.72740 | 33947 ft | 489 kts | 285° |
| 2026-05-04 23:30 | 48.47187 | -128.82694 | 33948 ft | 489 kts | 285° |
| 2026-05-04 23:30 | 48.48808 | -128.92648 | 33946 ft | 489 kts | 285° |
| 2026-05-04 23:31 | 48.50422 | -129.02613 | 33946 ft | 489 kts | 285° |
| 2026-05-04 23:31 | 48.52027 | -129.12583 | 33951 ft | 488 kts | 285° |
| 2026-05-04 23:32 | 48.53617 | -129.22525 | 33947 ft | 487 kts | 285° |
| 2026-05-04 23:32 | 48.55198 | -129.32466 | 33951 ft | 487 kts | 285° |
| 2026-05-04 23:33 | 48.56760 | -129.42345 | 33953 ft | 487 kts | 284° |
| 2026-05-04 23:33 | 48.58324 | -129.52299 | 33954 ft | 487 kts | 284° |
| 2026-05-04 23:34 | 48.59880 | -129.62259 | 33950 ft | 487 kts | 284° |
| 2026-05-04 23:34 | 48.61423 | -129.72206 | 33954 ft | 486 kts | 284° |
| 2026-05-04 23:35 | 48.62957 | -129.82149 | 33959 ft | 486 kts | 284° |
| 2026-05-04 23:35 | 48.64483 | -129.92110 | 33960 ft | 486 kts | 284° |
| 2026-05-04 23:36 | 48.66002 | -130.02080 | 33966 ft | 486 kts | 284° |
| 2026-05-04 23:36 | 48.67257 | -130.10364 | 33979 ft | 486 kts | 284° |
| 2026-05-04 23:37 | 48.68758 | -130.20327 | 33959 ft | 486 kts | 283° |
| 2026-05-04 23:37 | 48.70253 | -130.30317 | 33963 ft | 486 kts | 283° |
| 2026-05-04 23:38 | 48.71738 | -130.40308 | 33972 ft | 486 kts | 283° |
| 2026-05-04 23:38 | 48.73214 | -130.50301 | 33973 ft | 486 kts | 283° |
| 2026-05-04 23:39 | 48.74679 | -130.60274 | 33982 ft | 484 kts | 283° |
| 2026-05-04 23:39 | 48.76132 | -130.70241 | 33982 ft | 484 kts | 282° |
| 2026-05-04 23:40 | 48.77571 | -130.80172 | 33986 ft | 482 kts | 282° |
| 2026-05-04 23:40 | 48.79003 | -130.90126 | 33981 ft | 483 kts | 282° |
| 2026-05-04 23:41 | 48.80426 | -131.00069 | 33987 ft | 483 kts | 282° |
| 2026-05-04 23:41 | 48.81846 | -131.10064 | 33979 ft | 484 kts | 282° |
| 2026-05-04 23:42 | 48.83253 | -131.20040 | 33998 ft | 483 kts | 282° |
| 2026-05-04 23:42 | 48.84652 | -131.30019 | 33990 ft | 484 kts | 282° |
| 2026-05-04 23:43 | 48.86034 | -131.39948 | 34000 ft | 484 kts | 281° |
| 2026-05-04 23:43 | 48.87416 | -131.49936 | 33988 ft | 483 kts | 281° |
| 2026-05-04 23:44 | 48.88790 | -131.59934 | 34010 ft | 483 kts | 281° |
| 2026-05-04 23:44 | 48.90153 | -131.69928 | 34010 ft | 483 kts | 281° |
| 2026-05-04 23:45 | 48.91511 | -131.79948 | 33997 ft | 484 kts | 281° |
| 2026-05-04 23:45 | 48.92859 | -131.89970 | 34017 ft | 484 kts | 280° |
| 2026-05-04 23:46 | 48.94198 | -131.99996 | 34020 ft | 484 kts | 280° |
| 2026-05-04 23:46 | 48.95529 | -132.10023 | 34006 ft | 483 kts | 280° |
| 2026-05-04 23:47 | 48.96851 | -132.20056 | 34029 ft | 483 kts | 280° |
| 2026-05-04 23:47 | 48.98161 | -132.30079 | 34013 ft | 483 kts | 280° |
| 2026-05-04 23:48 | 48.99475 | -132.40112 | 34011 ft | 483 kts | 281° |
| 2026-05-04 23:48 | 49.01706 | -132.49768 | 34018 ft | 486 kts | 292° |
| 2026-05-04 23:49 | 49.04527 | -132.59164 | 34027 ft | 488 kts | 292° |
| 2026-05-04 23:49 | 49.07428 | -132.68518 | 34022 ft | 488 kts | 293° |
| 2026-05-04 23:50 | 49.10316 | -132.77882 | 34028 ft | 488 kts | 292° |
| 2026-05-04 23:50 | 49.13186 | -132.87277 | 34030 ft | 488 kts | 292° |
| 2026-05-04 23:51 | 49.16037 | -132.96676 | 34031 ft | 488 kts | 292° |
| 2026-05-04 23:51 | 49.18867 | -133.06042 | 34035 ft | 489 kts | 292° |
| 2026-05-04 23:52 | 49.21706 | -133.15472 | 34037 ft | 488 kts | 292° |
| 2026-05-04 23:52 | 49.24541 | -133.24922 | 34037 ft | 488 kts | 292° |
| 2026-05-04 23:53 | 49.27363 | -133.34365 | 34042 ft | 488 kts | 291° |
| 2026-05-04 23:53 | 49.30182 | -133.43839 | 34037 ft | 489 kts | 291° |
| 2026-05-04 23:54 | 49.32995 | -133.53327 | 34040 ft | 489 kts | 291° |
| 2026-05-04 23:54 | 49.35800 | -133.62825 | 34044 ft | 489 kts | 291° |
| 2026-05-04 23:55 | 49.38596 | -133.72330 | 34052 ft | 489 kts | 291° |
| 2026-05-04 23:56 | 49.42779 | -133.86619 | 34048 ft | 489 kts | 291° |
| 2026-05-04 23:56 | 49.45555 | -133.96147 | 34048 ft | 489 kts | 291° |
| 2026-05-04 23:57 | 49.48326 | -134.05699 | 34044 ft | 489 kts | 290° |
| 2026-05-04 23:57 | 49.51085 | -134.15244 | 34053 ft | 488 kts | 290° |
| 2026-05-04 23:58 | 49.53838 | -134.24810 | 34055 ft | 488 kts | 290° |
| 2026-05-04 23:58 | 49.56581 | -134.34377 | 34055 ft | 488 kts | 290° |
| 2026-05-04 23:59 | 49.59314 | -134.43950 | 34058 ft | 488 kts | 290° |
| 2026-05-04 23:59 | 49.62041 | -134.53538 | 34057 ft | 488 kts | 290° |
| 2026-05-05 00:00 | 49.64759 | -134.63132 | 34060 ft | 488 kts | 290° |
| 2026-05-05 00:00 | 49.67470 | -134.72743 | 34063 ft | 488 kts | 290° |
| 2026-05-05 00:01 | 49.70173 | -134.82363 | 34059 ft | 488 kts | 290° |
| 2026-05-05 00:01 | 49.72868 | -134.91992 | 34071 ft | 488 kts | 290° |
| 2026-05-05 00:02 | 49.75537 | -135.01572 | 34065 ft | 489 kts | 289° |
| 2026-05-05 00:02 | 49.78219 | -135.11234 | 34067 ft | 489 kts | 289° |
| 2026-05-05 00:03 | 49.80893 | -135.20907 | 34069 ft | 489 kts | 289° |
| 2026-05-05 00:03 | 49.83561 | -135.30597 | 34076 ft | 489 kts | 289° |
| 2026-05-05 00:04 | 49.86223 | -135.40309 | 34073 ft | 490 kts | 289° |
| 2026-05-05 00:04 | 49.88883 | -135.50052 | 34070 ft | 490 kts | 289° |
| 2026-05-05 00:05 | 49.91535 | -135.59804 | 34077 ft | 490 kts | 289° |
| 2026-05-05 00:05 | 49.94177 | -135.69563 | 34085 ft | 490 kts | 289° |
| 2026-05-05 00:06 | 49.96812 | -135.79334 | 34083 ft | 490 kts | 288° |
| 2026-05-05 00:06 | 49.99437 | -135.89111 | 34083 ft | 490 kts | 288° |
| 2026-05-05 00:07 | 50.02052 | -135.98897 | 34091 ft | 490 kts | 288° |
| 2026-05-05 00:07 | 50.04661 | -136.08696 | 34097 ft | 490 kts | 288° |
| 2026-05-05 00:08 | 50.07259 | -136.18498 | 34101 ft | 490 kts | 288° |
| 2026-05-05 00:08 | 50.09847 | -136.28301 | 34099 ft | 489 kts | 288° |
| 2026-05-05 00:09 | 50.12426 | -136.38113 | 34098 ft | 489 kts | 288° |
| 2026-05-05 00:09 | 50.14978 | -136.47866 | 34100 ft | 489 kts | 288° |
| 2026-05-05 00:10 | 50.17541 | -136.57702 | 34129 ft | 489 kts | 287° |
| 2026-05-05 00:10 | 50.20091 | -136.67525 | 34110 ft | 488 kts | 287° |
| 2026-05-05 00:11 | 50.22627 | -136.77343 | 34115 ft | 488 kts | 287° |
| 2026-05-05 00:11 | 50.25155 | -136.87168 | 34114 ft | 487 kts | 287° |
| 2026-05-05 00:12 | 50.27673 | -136.97002 | 34117 ft | 487 kts | 287° |
| 2026-05-05 00:12 | 50.30181 | -137.06839 | 34116 ft | 486 kts | 287° |
| 2026-05-05 00:13 | 50.32676 | -137.16665 | 34126 ft | 486 kts | 286° |
| 2026-05-05 00:13 | 50.35162 | -137.26504 | 34127 ft | 486 kts | 286° |
| 2026-05-05 00:14 | 50.37638 | -137.36342 | 34127 ft | 486 kts | 286° |
| 2026-05-05 00:14 | 50.40108 | -137.46196 | 34134 ft | 486 kts | 285° |
| 2026-05-05 00:15 | 50.42554 | -137.56005 | 34128 ft | 486 kts | 285° |
| 2026-05-05 00:15 | 50.45006 | -137.65878 | 34129 ft | 486 kts | 285° |
| 2026-05-05 00:16 | 50.47450 | -137.75763 | 34132 ft | 486 kts | 285° |
| 2026-05-05 00:16 | 50.49886 | -137.85657 | 34156 ft | 486 kts | 285° |
| 2026-05-05 00:17 | 50.52315 | -137.95570 | 34133 ft | 487 kts | 285° |
| 2026-05-05 00:17 | 50.54737 | -138.05501 | 34135 ft | 487 kts | 285° |
| 2026-05-05 00:18 | 50.57153 | -138.15449 | 34133 ft | 487 kts | 284° |
| 2026-05-05 00:18 | 50.59562 | -138.25412 | 34134 ft | 487 kts | 284° |
| 2026-05-05 00:19 | 50.61960 | -138.35373 | 34158 ft | 487 kts | 283° |
| 2026-05-05 00:19 | 50.64352 | -138.45363 | 34134 ft | 487 kts | 283° |
| 2026-05-05 00:20 | 50.66737 | -138.55361 | 34136 ft | 487 kts | 283° |
| 2026-05-05 00:20 | 50.69112 | -138.65367 | 34138 ft | 487 kts | 283° |
| 2026-05-05 00:21 | 50.71478 | -138.75382 | 34133 ft | 487 kts | 283° |
| 2026-05-05 00:21 | 50.73834 | -138.85400 | 34136 ft | 487 kts | 283° |
| 2026-05-05 00:22 | 50.76166 | -138.95365 | 34130 ft | 487 kts | 283° |
| 2026-05-05 00:22 | 50.78505 | -139.05403 | 34141 ft | 487 kts | 283° |
| 2026-05-05 00:23 | 50.80835 | -139.15450 | 34160 ft | 487 kts | 283° |
| 2026-05-05 00:23 | 50.83155 | -139.25496 | 34137 ft | 486 kts | 282° |
| 2026-05-05 00:24 | 50.85093 | -139.33928 | 34137 ft | 486 kts | 282° |
| 2026-05-05 00:24 | 50.87377 | -139.43914 | 34137 ft | 486 kts | 282° |
| 2026-05-05 00:25 | 50.89686 | -139.54053 | 34138 ft | 486 kts | 282° |
| 2026-05-05 00:25 | 50.91969 | -139.64124 | 34152 ft | 486 kts | 282° |
| 2026-05-05 00:26 | 50.94249 | -139.74232 | 34133 ft | 487 kts | 282° |
| 2026-05-05 00:26 | 50.96517 | -139.84337 | 34137 ft | 487 kts | 282° |
| 2026-05-05 00:27 | 50.98765 | -139.94401 | 34144 ft | 487 kts | 281° |
| 2026-05-05 00:27 | 51.01069 | -140.04622 | 34159 ft | 490 kts | 283° |
| 2026-05-05 00:28 | 51.03594 | -140.14640 | 34135 ft | 493 kts | 284° |
| 2026-05-05 00:28 | 51.06198 | -140.24728 | 34132 ft | 493 kts | 284° |
| 2026-05-05 00:29 | 51.08754 | -140.34828 | 34128 ft | 492 kts | 284° |
| 2026-05-05 00:29 | 51.11274 | -140.44949 | 34131 ft | 492 kts | 283° |
| 2026-05-05 00:30 | 51.13780 | -140.55091 | 34129 ft | 492 kts | 283° |
| 2026-05-05 00:30 | 51.16273 | -140.65226 | 34127 ft | 491 kts | 283° |
| 2026-05-05 00:31 | 51.18759 | -140.75372 | 34121 ft | 491 kts | 283° |
| 2026-05-05 00:31 | 51.21232 | -140.85514 | 34119 ft | 491 kts | 283° |
| 2026-05-05 00:32 | 51.23702 | -140.95683 | 34120 ft | 491 kts | 282° |
| 2026-05-05 00:32 | 51.26167 | -141.05883 | 34116 ft | 491 kts | 282° |
| 2026-05-05 00:33 | 51.28599 | -141.15994 | 34113 ft | 491 kts | 282° |
| 2026-05-05 00:33 | 51.31042 | -141.26195 | 34107 ft | 491 kts | 282° |
| 2026-05-05 00:34 | 51.33474 | -141.36397 | 34127 ft | 491 kts | 282° |
| 2026-05-05 00:34 | 51.35900 | -141.46625 | 34096 ft | 492 kts | 282° |
| 2026-05-05 00:35 | 51.38315 | -141.56859 | 34109 ft | 492 kts | 281° |
| 2026-05-05 00:35 | 51.40725 | -141.67115 | 34096 ft | 492 kts | 281° |
| 2026-05-05 00:36 | 51.43125 | -141.77375 | 34091 ft | 492 kts | 281° |
| 2026-05-05 00:36 | 51.45515 | -141.87644 | 34105 ft | 492 kts | 281° |
| 2026-05-05 00:37 | 51.47895 | -141.97920 | 34087 ft | 491 kts | 280° |
| 2026-05-05 00:37 | 51.50264 | -142.08199 | 34087 ft | 491 kts | 280° |
| 2026-05-05 00:38 | 51.52624 | -142.18490 | 34073 ft | 491 kts | 280° |
| 2026-05-05 00:38 | 51.54980 | -142.28802 | 34080 ft | 491 kts | 279° |
| 2026-05-05 00:39 | 51.57323 | -142.39118 | 34075 ft | 491 kts | 279° |
| 2026-05-05 00:39 | 51.59641 | -142.49377 | 34067 ft | 491 kts | 279° |
| 2026-05-05 00:40 | 51.61964 | -142.59707 | 34066 ft | 491 kts | 279° |
| 2026-05-05 00:40 | 51.64295 | -142.70118 | 34077 ft | 491 kts | 278° |
| 2026-05-05 00:41 | 51.66599 | -142.80459 | 34060 ft | 490 kts | 278° |
| 2026-05-05 00:41 | 51.68874 | -142.90726 | 34051 ft | 490 kts | 278° |
| 2026-05-05 00:42 | 51.71155 | -143.01071 | 34049 ft | 490 kts | 278° |
| 2026-05-05 00:42 | 51.73433 | -143.11454 | 34042 ft | 490 kts | 278° |
| 2026-05-05 00:43 | 51.75694 | -143.21811 | 34032 ft | 489 kts | 278° |
| 2026-05-05 00:43 | 51.77945 | -143.32176 | 34031 ft | 489 kts | 278° |
| 2026-05-05 00:44 | 51.80190 | -143.42562 | 34033 ft | 489 kts | 278° |
| 2026-05-05 00:44 | 51.82422 | -143.52944 | 34034 ft | 489 kts | 278° |
| 2026-05-05 00:45 | 51.84645 | -143.63335 | 34033 ft | 488 kts | 277° |
| 2026-05-05 00:45 | 51.86839 | -143.73641 | 34027 ft | 488 kts | 277° |
| 2026-05-05 00:46 | 51.89039 | -143.84026 | 34010 ft | 488 kts | 277° |
| 2026-05-05 00:46 | 51.91228 | -143.94417 | 34007 ft | 488 kts | 277° |
| 2026-05-05 00:47 | 51.93409 | -144.04824 | 34069 ft | 488 kts | 277° |
| 2026-05-05 00:47 | 51.95583 | -144.15258 | 33998 ft | 490 kts | 276° |
| 2026-05-05 00:48 | 51.97755 | -144.25728 | 34000 ft | 490 kts | 276° |
| 2026-05-05 00:48 | 51.99917 | -144.36199 | 33992 ft | 489 kts | 276° |
| 2026-05-05 00:49 | 52.02066 | -144.46665 | 33990 ft | 489 kts | 276° |
| 2026-05-05 00:49 | 52.04207 | -144.57147 | 33975 ft | 488 kts | 276° |
| 2026-05-05 00:50 | 52.06336 | -144.67632 | 33975 ft | 488 kts | 276° |
| 2026-05-05 00:50 | 52.08453 | -144.78113 | 33964 ft | 488 kts | 276° |
| 2026-05-05 00:51 | 52.10549 | -144.88541 | 33950 ft | 488 kts | 276° |
| 2026-05-05 00:51 | 52.12646 | -144.99035 | 33979 ft | 488 kts | 276° |
| 2026-05-05 00:52 | 52.14735 | -145.09543 | 33935 ft | 488 kts | 276° |
| 2026-05-05 00:52 | 52.16813 | -145.20055 | 33936 ft | 487 kts | 276° |
| 2026-05-05 00:53 | 52.18880 | -145.30567 | 33925 ft | 487 kts | 276° |
| 2026-05-05 00:53 | 52.20939 | -145.41092 | 33925 ft | 487 kts | 276° |
| 2026-05-05 00:54 | 52.22988 | -145.51637 | 33909 ft | 488 kts | 276° |
| 2026-05-05 00:54 | 52.25032 | -145.62206 | 33891 ft | 489 kts | 276° |
| 2026-05-05 00:55 | 52.27072 | -145.72803 | 33892 ft | 489 kts | 276° |
| 2026-05-05 00:55 | 52.29097 | -145.83390 | 33884 ft | 488 kts | 276° |
| 2026-05-05 00:56 | 52.31099 | -145.93918 | 33926 ft | 488 kts | 276° |
| 2026-05-05 00:56 | 52.33104 | -146.04516 | 33862 ft | 488 kts | 276° |
| 2026-05-05 00:57 | 52.35098 | -146.15113 | 33860 ft | 488 kts | 276° |
| 2026-05-05 00:57 | 52.37084 | -146.25731 | 33848 ft | 488 kts | 276° |
| 2026-05-05 00:58 | 52.39057 | -146.36343 | 33850 ft | 488 kts | 276° |
| 2026-05-05 00:58 | 52.41022 | -146.46971 | 33829 ft | 487 kts | 276° |
| 2026-05-05 00:59 | 52.42976 | -146.57597 | 33815 ft | 487 kts | 276° |
| 2026-05-05 00:59 | 52.44921 | -146.68239 | 33815 ft | 487 kts | 276° |
| 2026-05-05 01:00 | 52.46853 | -146.78873 | 33798 ft | 487 kts | 276° |
| 2026-05-05 01:00 | 52.48776 | -146.89524 | 33815 ft | 486 kts | 277° |
| 2026-05-05 01:01 | 52.50687 | -147.00167 | 33783 ft | 486 kts | 277° |
| 2026-05-05 01:01 | 52.52588 | -147.10809 | 33782 ft | 486 kts | 277° |
| 2026-05-05 01:02 | 52.54481 | -147.21464 | 33764 ft | 486 kts | 277° |
| 2026-05-05 01:02 | 52.56363 | -147.32130 | 33768 ft | 486 kts | 276° |
| 2026-05-05 01:03 | 52.58235 | -147.42801 | 33753 ft | 486 kts | 277° |
| 2026-05-05 01:03 | 52.60096 | -147.53477 | 33740 ft | 485 kts | 277° |
| 2026-05-05 01:04 | 52.61934 | -147.64081 | 33732 ft | 485 kts | 277° |
| 2026-05-05 01:04 | 52.64691 | -147.80110 | 33717 ft | 485 kts | 277° |
| 2026-05-05 01:05 | 52.66516 | -147.90803 | 33705 ft | 485 kts | 277° |
| 2026-05-05 01:05 | 52.68332 | -148.01507 | 33702 ft | 485 kts | 277° |
| 2026-05-05 01:06 | 52.70137 | -148.12207 | 33703 ft | 483 kts | 277° |
| 2026-05-05 01:06 | 52.71925 | -148.22870 | 33705 ft | 482 kts | 277° |
| 2026-05-05 01:07 | 52.73703 | -148.33547 | 33703 ft | 482 kts | 277° |
| 2026-05-05 01:07 | 52.75468 | -148.44215 | 33695 ft | 482 kts | 277° |
| 2026-05-05 01:08 | 52.77223 | -148.54887 | 33679 ft | 482 kts | 277° |
| 2026-05-05 01:08 | 52.78970 | -148.65571 | 33677 ft | 481 kts | 276° |
| 2026-05-05 01:09 | 52.80706 | -148.76257 | 33666 ft | 481 kts | 276° |
| 2026-05-05 01:09 | 52.82431 | -148.86945 | 33666 ft | 481 kts | 276° |
| 2026-05-05 01:10 | 52.84136 | -148.97573 | 33652 ft | 481 kts | 276° |
| 2026-05-05 01:10 | 52.85839 | -149.08259 | 33642 ft | 480 kts | 276° |
| 2026-05-05 01:11 | 52.87533 | -149.18956 | 33639 ft | 480 kts | 276° |
| 2026-05-05 01:11 | 52.88943 | -149.27919 | 33682 ft | 480 kts | 276° |
| 2026-05-05 01:12 | 52.90618 | -149.38621 | 33633 ft | 480 kts | 276° |
| 2026-05-05 01:12 | 52.92283 | -149.49332 | 33616 ft | 480 kts | 276° |
| 2026-05-05 01:13 | 52.93937 | -149.60042 | 33616 ft | 480 kts | 276° |
| 2026-05-05 01:13 | 52.95583 | -149.70771 | 33605 ft | 480 kts | 276° |
| 2026-05-05 01:14 | 52.97218 | -149.81503 | 33622 ft | 480 kts | 276° |
| 2026-05-05 01:14 | 52.98845 | -149.92252 | 33598 ft | 481 kts | 276° |
| 2026-05-05 01:15 | 53.00451 | -150.02937 | 33597 ft | 480 kts | 276° |
| 2026-05-05 01:15 | 53.02013 | -150.13710 | 33587 ft | 480 kts | 275° |
| 2026-05-05 01:16 | 53.03544 | -150.24502 | 33590 ft | 479 kts | 276° |
| 2026-05-05 01:16 | 53.05065 | -150.35271 | 33580 ft | 478 kts | 276° |
| 2026-05-05 01:17 | 53.06582 | -150.46025 | 33570 ft | 478 kts | 276° |
| 2026-05-05 01:17 | 53.08090 | -150.56777 | 33569 ft | 478 kts | 276° |
| 2026-05-05 01:18 | 53.09589 | -150.67541 | 33561 ft | 477 kts | 276° |
| 2026-05-05 01:18 | 53.11077 | -150.78312 | 33597 ft | 478 kts | 276° |
| 2026-05-05 01:19 | 53.12554 | -150.89078 | 33553 ft | 477 kts | 276° |
| 2026-05-05 01:19 | 53.14020 | -150.99844 | 33552 ft | 477 kts | 276° |
| 2026-05-05 01:20 | 53.15466 | -151.10545 | 33548 ft | 476 kts | 276° |
| 2026-05-05 01:20 | 53.16913 | -151.21325 | 33548 ft | 476 kts | 276° |
| 2026-05-05 01:21 | 53.18347 | -151.32102 | 33546 ft | 476 kts | 277° |
| 2026-05-05 01:21 | 53.19772 | -151.42878 | 33540 ft | 476 kts | 277° |
| 2026-05-05 01:22 | 53.21187 | -151.53662 | 33536 ft | 476 kts | 277° |
| 2026-05-05 01:22 | 53.22592 | -151.64444 | 33535 ft | 476 kts | 276° |
| 2026-05-05 01:23 | 53.23986 | -151.75234 | 33529 ft | 475 kts | 276° |
| 2026-05-05 01:23 | 53.25372 | -151.86038 | 33526 ft | 475 kts | 277° |
| 2026-05-05 01:24 | 53.26737 | -151.96763 | 33523 ft | 475 kts | 277° |
| 2026-05-05 01:24 | 53.28100 | -152.07557 | 33517 ft | 475 kts | 277° |
| 2026-05-05 01:25 | 53.29453 | -152.18361 | 33517 ft | 475 kts | 277° |
| 2026-05-05 01:25 | 53.30796 | -152.29159 | 33538 ft | 475 kts | 277° |
| 2026-05-05 01:26 | 53.32130 | -152.39983 | 33512 ft | 475 kts | 277° |
| 2026-05-05 01:26 | 53.33455 | -152.50809 | 33503 ft | 475 kts | 277° |
| 2026-05-05 01:27 | 53.34769 | -152.61631 | 33503 ft | 475 kts | 277° |
| 2026-05-05 01:27 | 53.36075 | -152.72475 | 33498 ft | 475 kts | 276° |
| 2026-05-05 01:28 | 53.37369 | -152.83314 | 33506 ft | 475 kts | 276° |
| 2026-05-05 01:28 | 53.38653 | -152.94155 | 33498 ft | 475 kts | 276° |
| 2026-05-05 01:29 | 53.39928 | -153.05006 | 33498 ft | 474 kts | 276° |
| 2026-05-05 01:29 | 53.41183 | -153.15781 | 33498 ft | 474 kts | 276° |
| 2026-05-05 01:30 | 53.42438 | -153.26642 | 33502 ft | 474 kts | 276° |
| 2026-05-05 01:30 | 53.43683 | -153.37523 | 33496 ft | 476 kts | 276° |
| 2026-05-05 01:31 | 53.44924 | -153.48460 | 33495 ft | 477 kts | 276° |
| 2026-05-05 01:31 | 53.46156 | -153.59402 | 33492 ft | 477 kts | 276° |
| 2026-05-05 01:32 | 53.47379 | -153.70350 | 33492 ft | 477 kts | 276° |
| 2026-05-05 01:32 | 53.48591 | -153.81310 | 33490 ft | 477 kts | 276° |
| 2026-05-05 01:33 | 53.49794 | -153.92294 | 33486 ft | 480 kts | 277° |
| 2026-05-05 01:33 | 53.50995 | -154.03339 | 33486 ft | 481 kts | 277° |
| 2026-05-05 01:34 | 53.52187 | -154.14402 | 33481 ft | 481 kts | 277° |
| 2026-05-05 01:34 | 53.53367 | -154.25458 | 33482 ft | 481 kts | 276° |
| 2026-05-05 01:35 | 53.54535 | -154.36522 | 33488 ft | 481 kts | 277° |
| 2026-05-05 01:35 | 53.55687 | -154.47537 | 33482 ft | 482 kts | 277° |
| 2026-05-05 01:36 | 53.56842 | -154.58644 | 33481 ft | 481 kts | 277° |
| 2026-05-05 01:36 | 53.57979 | -154.69690 | 33479 ft | 478 kts | 277° |
| 2026-05-05 01:37 | 53.59102 | -154.80720 | 33482 ft | 478 kts | 277° |
| 2026-05-05 01:37 | 53.60214 | -154.91753 | 33490 ft | 478 kts | 277° |
| 2026-05-05 01:38 | 53.61316 | -155.02793 | 33482 ft | 478 kts | 277° |
| 2026-05-05 01:38 | 53.62411 | -155.13869 | 33483 ft | 478 kts | 277° |
| 2026-05-05 01:39 | 53.63493 | -155.24914 | 33488 ft | 478 kts | 277° |
| 2026-05-05 01:39 | 53.64566 | -155.35986 | 33484 ft | 478 kts | 277° |
| 2026-05-05 01:40 | 53.65628 | -155.47052 | 33494 ft | 478 kts | 277° |
| 2026-05-05 01:40 | 53.66674 | -155.58059 | 33493 ft | 478 kts | 277° |
| 2026-05-05 01:41 | 53.67716 | -155.69144 | 33493 ft | 478 kts | 277° |
| 2026-05-05 01:41 | 53.68747 | -155.80225 | 33495 ft | 478 kts | 277° |
| 2026-05-05 01:42 | 53.69768 | -155.91311 | 33506 ft | 478 kts | 277° |
| 2026-05-05 01:42 | 53.70778 | -156.02404 | 33499 ft | 478 kts | 277° |
| 2026-05-05 01:43 | 53.71780 | -156.13505 | 33494 ft | 478 kts | 277° |
| 2026-05-05 01:43 | 53.72770 | -156.24604 | 33495 ft | 478 kts | 277° |
| 2026-05-05 01:44 | 53.73750 | -156.35703 | 33496 ft | 478 kts | 277° |
| 2026-05-05 01:44 | 53.74719 | -156.46821 | 33508 ft | 478 kts | 278° |
| 2026-05-05 01:45 | 53.75678 | -156.57936 | 33503 ft | 478 kts | 277° |
| 2026-05-05 01:45 | 53.76628 | -156.69063 | 33504 ft | 478 kts | 277° |
| 2026-05-05 01:46 | 53.77568 | -156.80197 | 33506 ft | 478 kts | 277° |
| 2026-05-05 01:46 | 53.78494 | -156.91308 | 33507 ft | 476 kts | 277° |
| 2026-05-05 01:47 | 53.79408 | -157.02391 | 33509 ft | 475 kts | 278° |
| 2026-05-05 01:47 | 53.80310 | -157.13458 | 33509 ft | 475 kts | 278° |
| 2026-05-05 01:48 | 53.81195 | -157.24441 | 33506 ft | 475 kts | 277° |
| 2026-05-05 01:48 | 53.82076 | -157.35511 | 33517 ft | 474 kts | 277° |
| 2026-05-05 01:49 | 53.82946 | -157.46580 | 33520 ft | 475 kts | 277° |
| 2026-05-05 01:49 | 53.83806 | -157.57651 | 33534 ft | 474 kts | 277° |
| 2026-05-05 01:50 | 53.84654 | -157.68702 | 33532 ft | 473 kts | 277° |
| 2026-05-05 01:50 | 53.85492 | -157.79764 | 33537 ft | 473 kts | 277° |
| 2026-05-05 01:51 | 53.86320 | -157.90825 | 33545 ft | 473 kts | 277° |
| 2026-05-05 01:51 | 53.87137 | -158.01881 | 33541 ft | 473 kts | 277° |
| 2026-05-05 01:52 | 53.87944 | -158.12942 | 33549 ft | 473 kts | 277° |
| 2026-05-05 01:52 | 53.88743 | -158.24035 | 33557 ft | 473 kts | 277° |
| 2026-05-05 01:53 | 53.89524 | -158.35030 | 33560 ft | 473 kts | 277° |
| 2026-05-05 01:53 | 53.90300 | -158.46101 | 33557 ft | 473 kts | 277° |
| 2026-05-05 01:54 | 53.91066 | -158.57186 | 33569 ft | 472 kts | 277° |
| 2026-05-05 01:54 | 53.91819 | -158.68224 | 33566 ft | 471 kts | 277° |
| 2026-05-05 01:55 | 53.92561 | -158.79250 | 33577 ft | 470 kts | 277° |
| 2026-05-05 01:55 | 53.93291 | -158.90254 | 33575 ft | 469 kts | 277° |
| 2026-05-05 01:56 | 53.94012 | -159.01268 | 33584 ft | 470 kts | 277° |
| 2026-05-05 01:56 | 53.94722 | -159.12294 | 33592 ft | 471 kts | 276° |
| 2026-05-05 01:57 | 53.95424 | -159.23334 | 33593 ft | 470 kts | 276° |
| 2026-05-05 01:57 | 53.96114 | -159.34371 | 33591 ft | 470 kts | 276° |
| 2026-05-05 01:58 | 53.96790 | -159.45332 | 33600 ft | 470 kts | 276° |
| 2026-05-05 01:58 | 53.97462 | -159.56395 | 33598 ft | 471 kts | 276° |
| 2026-05-05 01:59 | 53.98123 | -159.67459 | 33609 ft | 471 kts | 276° |
| 2026-05-05 01:59 | 53.98775 | -159.78526 | 33611 ft | 471 kts | 276° |
| 2026-05-05 02:00 | 53.99417 | -159.89615 | 33620 ft | 472 kts | 276° |
| 2026-05-05 02:00 | 53.99835 | -160.00737 | 33630 ft | 472 kts | 268° |
| 2026-05-05 02:01 | 53.99362 | -160.11864 | 33637 ft | 473 kts | 265° |
| 2026-05-05 02:01 | 53.98722 | -160.22901 | 33627 ft | 471 kts | 265° |
| 2026-05-05 02:02 | 53.98047 | -160.33980 | 33641 ft | 471 kts | 265° |
| 2026-05-05 02:02 | 53.97374 | -160.45024 | 33641 ft | 471 kts | 265° |
| 2026-05-05 02:03 | 53.96809 | -160.54292 | 33655 ft | 469 kts | 265° |
| 2026-05-05 02:03 | 53.96129 | -160.65345 | 33656 ft | 471 kts | 265° |
| 2026-05-05 02:04 | 53.95444 | -160.76301 | 33667 ft | 470 kts | 264° |
| 2026-05-05 02:04 | 53.94741 | -160.87365 | 33666 ft | 467 kts | 264° |
| 2026-05-05 02:05 | 53.94038 | -160.98282 | 33686 ft | 468 kts | 264° |
| 2026-05-05 02:05 | 53.93321 | -161.09256 | 33686 ft | 469 kts | 264° |
| 2026-05-05 02:06 | 53.92593 | -161.20227 | 33684 ft | 468 kts | 264° |
| 2026-05-05 02:06 | 53.91855 | -161.31214 | 33694 ft | 467 kts | 264° |